createdAt,value
2022-09-28T00:01:04.719Z,99121.63
2022-09-28T00:06:30.967Z,99123.91
2022-09-28T00:11:54.150Z,99132.95
2022-09-28T00:17:17.333Z,99126.05
2022-09-28T00:22:40.867Z,99122.66
2022-09-28T00:28:05.940Z,99115.77
2022-09-28T00:33:28.586Z,99113.39
2022-09-28T00:38:52.170Z,99109.30
2022-09-28T00:44:48.029Z,99106.93
2022-09-28T00:50:38.267Z,99106.24
2022-09-28T00:56:13.823Z,99101.19
2022-09-28T01:01:36.692Z,99100.34
2022-09-28T01:06:59.701Z,99100.34
2022-09-28T01:12:21.914Z,99098.51
2022-09-28T01:17:54.589Z,99090.20
2022-09-28T01:23:22.083Z,99089.67
2022-09-28T01:28:48.625Z,99089.95
2022-09-28T01:34:21.102Z,99090.63
2022-09-28T01:39:51.355Z,99094.87
2022-09-28T01:45:18.273Z,99098.41
2022-09-28T01:50:44.584Z,99099.25
2022-09-28T01:56:17.793Z,99098.25
2022-09-28T02:01:48.659Z,99098.25
2022-09-28T02:07:18.706Z,99098.41
2022-09-28T02:12:57.808Z,99105.76
2022-09-28T02:18:22.827Z,99097.98
2022-09-28T02:23:48.881Z,99112.23
2022-09-28T02:29:11.562Z,99102.36
2022-09-28T02:34:33.718Z,99094.47
2022-09-28T02:39:55.955Z,99076.44
2022-09-28T02:45:40.173Z,99084.94
2022-09-28T02:51:19.068Z,99085.20
2022-09-28T02:57:04.278Z,99085.89
2022-09-28T03:02:39.324Z,99077.44
2022-09-28T03:08:12.580Z,99076.21
2022-09-28T03:13:36.360Z,99083.80
2022-09-28T03:19:01.873Z,99090.84
2022-09-28T03:24:24.208Z,99076.06
2022-09-28T03:29:46.355Z,99076.79
2022-09-28T03:35:08.945Z,99078.82
2022-09-28T03:40:32.195Z,99085.05
2022-09-28T03:46:01.831Z,99085.78
2022-09-28T03:51:26.814Z,99089.88
2022-09-28T03:56:49.027Z,99082.68
2022-09-28T04:02:12.330Z,99085.09
2022-09-28T04:07:34.511Z,99089.48
2022-09-28T04:12:56.719Z,99098.34
2022-09-28T04:18:23.119Z,99083.98
2022-09-28T04:23:47.389Z,99083.86
2022-09-28T04:29:20.005Z,99092.89
2022-09-28T04:34:44.275Z,99101.36
2022-09-28T04:40:06.311Z,99093.05
2022-09-28T04:45:29.083Z,99099.83
2022-09-28T04:50:51.683Z,99098.25
2022-09-28T04:56:21.445Z,99101.22
2022-09-28T05:01:43.633Z,99110.91
2022-09-28T05:07:06.071Z,99106.95
2022-09-28T05:12:28.375Z,99098.91
2022-09-28T05:17:50.498Z,99103.99
2022-09-28T05:23:12.656Z,99103.97
2022-09-28T05:28:40.757Z,99105.92
2022-09-28T05:34:03.660Z,99117.03
2022-09-28T05:39:25.831Z,99118.72
2022-09-28T05:44:47.998Z,99113.06
2022-09-28T05:50:12.806Z,99103.11
2022-09-28T05:55:35.127Z,99108.02
2022-09-28T06:00:59.579Z,99108.89
2022-09-28T06:06:21.949Z,99106.94
2022-09-28T06:11:44.846Z,99106.96
2022-09-28T06:17:08.021Z,99108.95
2022-09-28T06:22:30.539Z,99103.45
2022-09-28T06:28:04.030Z,99106.57
2022-09-28T06:33:28.235Z,99101.37
2022-09-28T06:38:50.986Z,99098.55
2022-09-28T06:44:14.192Z,99102.36
2022-09-28T06:49:36.959Z,99104.73
2022-09-28T06:54:59.184Z,99106.86
2022-09-28T07:00:21.798Z,99112.91
2022-09-28T07:05:49.859Z,99110.52
2022-09-28T07:11:16.063Z,99120.34
2022-09-28T07:17:05.001Z,99115.00
2022-09-28T07:22:05.670Z,99125.01
2022-09-28T07:27:29.219Z,99125.98
2022-09-28T07:32:54.442Z,99126.11
2022-09-28T07:38:19.294Z,99126.67
2022-09-28T07:43:42.240Z,99127.96
2022-09-28T07:49:11.377Z,99125.68
2022-09-28T07:54:31.536Z,99126.25
2022-09-28T07:59:55.384Z,99126.36
2022-09-28T08:05:32.313Z,99128.20
2022-09-28T08:10:57.084Z,99127.32
2022-09-28T08:16:20.853Z,99119.34
2022-09-28T08:21:45.936Z,99124.37
2022-09-28T08:27:09.968Z,99135.78
2022-09-28T08:32:33.182Z,99133.90
2022-09-28T08:37:59.892Z,99132.15
2022-09-28T08:43:29.738Z,99140.50
2022-09-28T08:49:25.311Z,99138.08
2022-09-28T08:55:17.264Z,99143.28
2022-09-28T09:00:50.264Z,99141.25
2022-09-28T09:06:55.465Z,99140.41
2022-09-28T09:12:44.966Z,99144.97
2022-09-28T09:18:17.833Z,99138.45
2022-09-28T09:23:46.845Z,99132.87
2022-09-28T09:29:47.997Z,99131.72
2022-09-28T09:35:44.456Z,99144.16
2022-09-28T09:41:32.673Z,99153.69
2022-09-28T09:47:08.670Z,99147.34
2022-09-28T09:52:48.066Z,99153.51
2022-09-28T09:58:27.566Z,99166.62
2022-09-28T10:03:54.834Z,99160.41
2022-09-28T10:09:44.308Z,99163.94
2022-09-28T10:15:08.643Z,99157.88
2022-09-28T10:20:32.467Z,99163.98
2022-09-28T10:26:00.985Z,99163.66
2022-09-28T10:31:44.784Z,99149.91
2022-09-28T10:37:24.483Z,99144.31
2022-09-28T10:42:51.596Z,99132.14
2022-09-28T10:48:26.113Z,99132.14
2022-09-28T10:53:49.433Z,99132.52
2022-09-28T10:59:13.288Z,99126.45
2022-09-28T11:04:46.767Z,99119.71
2022-09-28T11:10:09.994Z,99109.33
2022-09-28T11:15:36.716Z,99101.95
2022-09-28T11:20:58.980Z,99099.87
2022-09-28T11:26:26.044Z,99089.80
2022-09-28T11:31:50.742Z,99108.05
2022-09-28T11:37:32.852Z,99108.42
2022-09-28T11:48:32.505Z,99109.32
2022-09-28T11:54:09.363Z,99102.69
2022-09-28T11:59:39.378Z,99095.98
2022-09-28T12:05:18.395Z,99085.84
2022-09-28T12:10:58.496Z,99096.16
2022-09-28T12:22:06.158Z,99104.24
2022-09-28T12:27:50.815Z,99102.13
2022-09-28T12:33:22.581Z,99102.75
2022-09-28T12:39:18.107Z,99107.90
2022-09-28T12:44:49.451Z,99106.55
2022-09-28T12:50:40.653Z,99107.39
2022-09-28T12:56:39.689Z,99099.63
2022-09-28T13:02:43.195Z,99095.75
2022-09-28T13:08:19.592Z,99098.07
2022-09-28T13:13:53.397Z,99091.81
2022-09-28T13:19:32.820Z,99089.69
2022-09-28T13:24:58.159Z,99088.69
2022-09-28T13:30:24.320Z,99087.20
2022-09-28T13:35:50.313Z,99094.75
2022-09-28T13:41:40.728Z,99085.47
2022-09-28T13:47:26.705Z,99091.85
2022-09-28T13:53:13.448Z,99090.54
2022-09-28T13:58:40.061Z,99085.52
2022-09-28T14:04:28.108Z,99086.27
2022-09-28T14:10:21.182Z,99082.06
2022-09-28T14:15:55.782Z,99081.09
2022-09-28T14:21:54.821Z,99076.73
2022-09-28T14:28:08.577Z,99083.49
2022-09-28T14:33:43.503Z,99093.61
2022-09-28T14:39:25.795Z,99080.98
2022-09-28T14:45:11.618Z,99085.55
2022-09-28T14:50:39.731Z,99082.86
2022-09-28T14:56:05.310Z,99080.83
2022-09-28T15:01:31.884Z,99085.72
2022-09-28T15:07:04.612Z,99085.84
2022-09-28T15:12:40.049Z,99092.23
2022-09-28T15:18:09.880Z,99080.91
2022-09-28T15:23:51.152Z,99083.95
2022-09-28T15:29:28.709Z,99083.61
2022-09-28T15:34:57.038Z,99095.87
2022-09-28T15:40:22.023Z,99087.09
2022-09-28T15:45:50.501Z,99086.73
2022-09-28T15:51:30.503Z,99080.17
2022-09-28T15:57:10.377Z,99080.81
2022-09-28T16:02:37.455Z,99080.98
2022-09-28T16:08:08.191Z,99077.25
2022-09-28T16:13:35.481Z,99084.48
2022-09-28T16:19:02.405Z,99085.82
2022-09-28T16:24:36.311Z,99103.09
2022-09-28T16:30:22.024Z,99101.37
2022-09-28T16:35:57.395Z,99104.22
2022-09-28T16:41:26.246Z,99120.80
2022-09-28T16:46:54.589Z,99118.28
2022-09-28T16:52:20.389Z,99118.89
2022-09-28T16:57:42.545Z,99129.27
2022-09-28T17:03:06.696Z,99136.93
2022-09-28T17:08:33.880Z,99141.13
2022-09-28T17:13:58.336Z,99145.28
2022-09-28T17:19:34.785Z,99143.30
2022-09-28T17:24:56.935Z,99142.88
2022-09-28T17:30:23.643Z,99134.85
2022-09-28T17:35:44.090Z,99133.17
2022-09-28T17:41:07.159Z,99135.71
2022-09-28T17:46:49.847Z,99136.84
2022-09-28T17:52:14.818Z,99135.02
2022-09-28T17:57:37.210Z,99140.66
2022-09-28T18:03:00.960Z,99141.35
2022-09-28T18:08:29.139Z,99145.42
2022-09-28T18:13:51.633Z,99147.69
2022-09-28T18:19:13.968Z,99162.75
2022-09-28T18:24:36.638Z,99168.25
2022-09-28T18:29:59.342Z,99163.46
2022-09-28T18:35:23.565Z,99167.97
2022-09-28T18:40:46.868Z,99168.52
2022-09-28T18:46:12.892Z,99162.91
2022-09-28T18:51:35.719Z,99166.44
2022-09-28T18:56:59.882Z,99166.29
2022-09-28T19:02:22.122Z,99155.03
2022-09-28T19:07:46.302Z,99168.67
2022-09-28T19:13:08.470Z,99175.01
2022-09-28T19:18:30.717Z,99172.07
2022-09-28T19:23:55.823Z,99173.86
2022-09-28T19:29:18.561Z,99186.70
2022-09-28T19:34:40.928Z,99181.62
2022-09-28T19:40:05.086Z,99185.39
2022-09-28T19:45:28.547Z,99188.80
2022-09-28T19:50:51.228Z,99187.23
2022-09-28T19:56:14.100Z,99193.43
2022-09-28T20:01:36.777Z,99189.91
2022-09-28T20:06:59.290Z,99189.91
2022-09-28T20:12:22.696Z,99188.51
2022-09-28T20:17:44.846Z,99198.08
2022-09-28T20:23:10.375Z,99193.02
2022-09-28T20:28:33.121Z,99197.38
2022-09-28T20:33:56.587Z,99196.39
2022-09-28T20:39:19.771Z,99196.39
2022-09-28T20:44:42.117Z,99195.69
2022-09-28T20:50:04.372Z,99198.94
2022-09-28T20:55:27.675Z,99200.20
2022-09-28T21:00:50.344Z,99200.05
2022-09-28T21:06:13.837Z,99196.25
2022-09-28T21:11:39.978Z,99200.73
2022-09-28T21:17:02.111Z,99203.14
2022-09-28T21:22:24.709Z,99197.89
2022-09-28T21:27:46.840Z,99205.53
2022-09-28T21:33:10.152Z,99209.58
2022-09-28T21:38:32.860Z,99216.51
2022-09-28T21:43:55.935Z,99213.83
2022-09-28T21:49:19.567Z,99212.68
2022-09-28T21:54:42.893Z,99211.98
2022-09-28T22:00:05.031Z,99228.27
2022-09-28T22:05:29.281Z,99226.86
2022-09-28T22:10:51.955Z,99238.80
2022-09-28T22:16:15.308Z,99236.72
2022-09-28T22:21:46.807Z,99245.27
2022-09-28T22:27:09.538Z,99253.00
2022-09-28T22:32:31.665Z,99248.08
2022-09-28T22:37:54.591Z,99255.67
2022-09-28T22:43:16.787Z,99263.94
2022-09-28T22:48:39.038Z,99271.25
2022-09-28T22:54:02.169Z,99277.30
2022-09-28T22:59:25.166Z,99278.28
2022-09-28T23:04:47.287Z,99271.71
2022-09-28T23:10:09.409Z,99277.30
2022-09-28T23:15:32.036Z,99272.66
2022-09-28T23:21:01.770Z,99277.44
2022-09-28T23:26:37.730Z,99278.80
2022-09-28T23:32:02.008Z,99286.66
2022-09-28T23:37:24.207Z,99287.89
2022-09-28T23:42:47.008Z,99284.23
2022-09-28T23:48:09.562Z,99286.91
2022-09-28T23:53:33.023Z,99290.05
2022-09-28T23:58:55.273Z,99295.39
